| time (UTC) | temp C | wind direction | speed KPH | gust KPH | rain 1hr cm | rain 24hr cm | rain mn cm | humidity % | barometer mb |
| 20260507221343 | 28 | 67 | 9.7 | 14.5 | 0.00 | 0.00 | 0.00 | 73 | 1015.7 |
| 20260507220839 | 28 | 70 | 11.3 | 20.9 | 0.00 | 0.00 | 0.00 | 73 | 1015.7 |
| 20260507220338 | 28 | 70 | 11.3 | 16.1 | 0.00 | 0.00 | 0.00 | 73 | 1015.8 |
| 20260507215833 | 28 | 65 | 6.4 | 20.9 | 0.00 | 0.00 | 0.00 | 73 | 1015.9 |
| 20260507215331 | 28 | 86 | 9.7 | 20.9 | 0.00 | 0.00 | 0.00 | 73 | 1015.7 |
| 20260507214828 | 28 | 94 | 9.7 | 17.7 | 0.00 | 0.00 | 0.00 | 73 | 1015.4 |
| 20260507214326 | 28 | 2 | 12.9 | 17.7 | 0.00 | 0.00 | 0.00 | 73 | 1015.3 |
| 20260507213826 | 29 | 117 | 16.1 | 17.7 | 0.00 | 0.00 | 0.00 | 72 | 1015.1 |
| 20260507213323 | 29 | 90 | 11.3 | 16.1 | 0.00 | 0.00 | 0.00 | 73 | 1015.2 |
| 20260507212820 | 29 | 60 | 4.8 | 16.1 | 0.00 | 0.00 | 0.00 | 72 | 1014.9 |
| 20260507212316 | 29 | 78 | 11.3 | 16.1 | 0.00 | 0.00 | 0.00 | 72 | 1015.1 |
| 20260507211812 | 29 | 77 | 8.0 | 17.7 | 0.00 | 0.00 | 0.00 | 72 | 1015.2 |
| 20260507211309 | 29 | 61 | 14.5 | 24.1 | 0.00 | 0.00 | 0.00 | 72 | 1015.1 |
| 20260507210806 | 29 | 69 | 9.7 | 24.1 | 0.00 | 0.00 | 0.00 | 72 | 1015.3 |
| 20260507210303 | 29 | 53 | 14.5 | 24.1 | 0.00 | 0.00 | 0.00 | 73 | 1015.2 |
| 20260507205759 | 29 | 114 | 14.5 | 22.5 | 0.00 | 0.00 | 0.00 | 72 | 1015.0 |
| 20260507205257 | 29 | 65 | 17.7 | 25.7 | 0.00 | 0.00 | 0.00 | 71 | 1015.0 |
| 20260507204752 | 30 | 34 | 16.1 | 20.9 | 0.00 | 0.00 | 0.00 | 70 | 1014.9 |
| 20260507204250 | 30 | 57 | 8.0 | 22.5 | 0.00 | 0.00 | 0.00 | 70 | 1014.8 |
| 20260507203748 | 29 | 69 | 8.0 | 24.1 | 0.00 | 0.00 | 0.00 | 72 | 1015.0 |
| 20260507203245 | 30 | 77 | 12.9 | 20.9 | 0.00 | 0.00 | 0.00 | 70 | 1014.8 |
| 20260507202741 | 30 | 78 | 12.9 | 16.1 | 0.00 | 0.00 | 0.00 | 70 | 1014.9 |
| 20260507202237 | 30 | 73 | 11.3 | 22.5 | 0.00 | 0.00 | 0.00 | 70 | 1015.0 |
| 20260507201732 | 30 | 73 | 8.0 | 17.7 | 0.00 | 0.00 | 0.00 | 70 | 1014.8 |
| 20260507201230 | 30 | 80 | 9.7 | 24.1 | 0.00 | 0.00 | 0.00 | 70 | 1015.0 |
| 20260507200726 | 30 | 84 | 12.9 | 16.1 | 0.00 | 0.00 | 0.00 | 70 | 1015.1 |
| 20260507200222 | 30 | 66 | 12.9 | 22.5 | 0.00 | 0.00 | 0.00 | 70 | 1015.1 |
| 20260507195718 | 30 | 71 | 9.7 | 17.7 | 0.00 | 0.00 | 0.00 | 69 | 1015.1 |
| 20260507195216 | 30 | 64 | 11.3 | 16.1 | 0.00 | 0.00 | 0.00 | 69 | 1015.1 |
| 20260507194712 | 30 | 70 | 6.4 | 20.9 | 0.00 | 0.00 | 0.00 | 71 | 1015.2 |
| 20260507194209 | 30 | 40 | 11.3 | 22.5 | 0.00 | 0.00 | 0.00 | 71 | 1015.1 |
| 20260507193705 | 30 | 36 | 8.0 | 24.1 | 0.00 | 0.00 | 0.00 | 71 | 1015.1 |
| 20260507193202 | 30 | 61 | 9.7 | 24.1 | 0.00 | 0.00 | 0.00 | 71 | 1015.0 |
| 20260507192658 | 30 | 48 | 14.5 | 22.5 | 0.00 | 0.00 | 0.00 | 69 | 1015.2 |
| 20260507192155 | 30 | 66 | 11.3 | 22.5 | 0.00 | 0.00 | 0.00 | 70 | 1015.4 |
| 20260507191651 | 30 | 55 | 11.3 | 16.1 | 0.00 | 0.00 | 0.00 | 70 | 1015.5 |
| 20260507191148 | 30 | 72 | 6.4 | 22.5 | 0.00 | 0.00 | 0.00 | 70 | 1015.3 |
| 20260507190645 | 30 | 61 | 9.7 | 20.9 | 0.00 | 0.00 | 0.00 | 70 | 1015.6 |
| 20260507190144 | 30 | 29 | 9.7 | 22.5 | 0.00 | 0.00 | 0.00 | 69 | 1015.4 |
| 20260507185642 | 31 | 40 | 8.0 | 17.7 | 0.00 | 0.00 | 0.00 | 67 | 1015.7 |
| 20260507185138 | 30 | 91 | 6.4 | 20.9 | 0.00 | 0.00 | 0.00 | 69 | 1015.5 |
| 20260507184636 | 30 | 74 | 9.7 | 16.1 | 0.00 | 0.00 | 0.00 | 69 | 1015.5 |
| 20260507184134 | 31 | 43 | 19.3 | 22.5 | 0.00 | 0.00 | 0.00 | 66 | 1015.8 |
| 20260507183630 | 30 | 57 | 12.9 | 22.5 | 0.00 | 0.00 | 0.00 | 69 | 1015.5 |
| 20260507183127 | 30 | 57 | 11.3 | 16.1 | 0.00 | 0.00 | 0.00 | 68 | 1015.5 |
| 20260507182623 | 30 | 54 | 8.0 | 22.5 | 0.00 | 0.00 | 0.00 | 68 | 1015.6 |
| 20260507182120 | 30 | 34 | 12.9 | 22.5 | 0.00 | 0.00 | 0.00 | 68 | 1015.8 |
| 20260507181616 | 30 | 76 | 17.7 | 30.6 | 0.00 | 0.00 | 0.00 | 69 | 1015.6 |
| 20260507181113 | 30 | 50 | 12.9 | 25.7 | 0.00 | 0.00 | 0.00 | 70 | 1015.7 |
| 20260507180609 | 30 | 58 | 16.1 | 27.4 | 0.00 | 0.00 | 0.00 | 69 | 1015.8 |
| 20260507180106 | 30 | 61 | 8.0 | 22.5 | 0.00 | 0.00 | 0.00 | 69 | 1015.7 |
| 20260507175602 | 30 | 58 | 14.5 | 29.0 | 0.00 | 0.00 | 0.00 | 69 | 1016.1 |
| 20260507175100 | 30 | 338 | 14.5 | 27.4 | 0.00 | 0.00 | 0.00 | 70 | 1015.9 |
| 20260507174557 | 30 | 66 | 16.1 | 24.1 | 0.00 | 0.00 | 0.00 | 70 | 1016.0 |
| 20260507174054 | 30 | 82 | 12.9 | 17.7 | 0.00 | 0.00 | 0.00 | 69 | 1016.1 |
| 20260507173551 | 30 | 50 | 11.3 | 20.9 | 0.00 | 0.00 | 0.00 | 69 | 1016.4 |
| 20260507173049 | 31 | 25 | 4.8 | 22.5 | 0.00 | 0.00 | 0.00 | 69 | 1016.3 |
| 20260507172544 | 31 | 29 | 12.9 | 20.9 | 0.00 | 0.00 | 0.00 | 68 | 1016.4 |
| 20260507172042 | 31 | 58 | 9.7 | 17.7 | 0.00 | 0.00 | 0.00 | 68 | 1016.5 |
| 20260507171537 | 31 | 61 | 12.9 | 20.9 | 0.00 | 0.00 | 0.00 | 66 | 1016.6 |
| 20260507171034 | 31 | 65 | 6.4 | 25.7 | 0.00 | 0.00 | 0.00 | 69 | 1016.6 |
| 20260507170530 | 31 | 41 | 12.9 | 20.9 | 0.00 | 0.00 | 0.00 | 67 | 1016.9 |
| 20260507170028 | 30 | 45 | 9.7 | 25.7 | 0.00 | 0.00 | 0.00 | 69 | 1017.1 |
| 20260507165523 | 30 | 66 | 14.5 | 22.5 | 0.00 | 0.00 | 0.00 | 67 | 1016.7 |
| 20260507165020 | 30 | 78 | 12.9 | 20.9 | 0.00 | 0.00 | 0.00 | 69 | 1017.2 |
| 20260507164516 | 30 | 49 | 6.4 | 14.5 | 0.00 | 0.00 | 0.00 | 70 | 1017.0 |
| 20260507164014 | 30 | 39 | 11.3 | 22.5 | 0.00 | 0.00 | 0.00 | 70 | 1017.2 |
| 20260507163510 | 30 | 15 | 11.3 | 16.1 | 0.00 | 0.00 | 0.00 | 70 | 1017.2 |
| 20260507163009 | 31 | 57 | 12.9 | 16.1 | 0.00 | 0.00 | 0.00 | 68 | 1017.2 |
| 20260507162503 | 30 | 47 | 11.3 | 22.5 | 0.00 | 0.00 | 0.00 | 70 | 1017.2 |
| 20260507162000 | 30 | 80 | 11.3 | 17.7 | 0.00 | 0.00 | 0.00 | 70 | 1017.3 |
| 20260507161456 | 30 | 65 | 11.3 | 27.4 | 0.00 | 0.00 | 0.00 | 69 | 1017.5 |
| 20260507160954 | 30 | 54 | 19.3 | 22.5 | 0.00 | 0.00 | 0.00 | 69 | 1017.5 |
| 20260507160449 | 29 | 49 | 6.4 | 17.7 | 0.00 | 0.00 | 0.00 | 73 | 1017.4 |
| 20260507155945 | 29 | 62 | 6.4 | 20.9 | 0.00 | 0.00 | 0.00 | 73 | 1017.6 |
| 20260507155441 | 29 | 88 | 9.7 | 16.1 | 0.00 | 0.00 | 0.00 | 73 | 1017.4 |
| 20260507154939 | 30 | 75 | 9.7 | 16.1 | 0.00 | 0.00 | 0.00 | 71 | 1017.6 |
| 20260507154435 | 30 | 73 | 9.7 | 20.9 | 0.00 | 0.00 | 0.00 | 70 | 1017.5 |
| 20260507153932 | 30 | 58 | 12.9 | 16.1 | 0.00 | 0.00 | 0.00 | 68 | 1017.6 |
| 20260507153429 | 30 | 45 | 11.3 | 16.1 | 0.00 | 0.00 | 0.00 | 69 | 1017.7 |
| 20260507152925 | 30 | 49 | 16.1 | 29.0 | 0.00 | 0.00 | 0.00 | 71 | 1017.7 |
| 20260507152421 | 30 | 60 | 14.5 | 22.5 | 0.00 | 0.00 | 0.00 | 69 | 1017.7 |
| 20260507151917 | 30 | 83 | 11.3 | 22.5 | 0.00 | 0.00 | 0.00 | 70 | 1017.7 |
| 20260507151414 | 30 | 30 | 16.1 | 20.9 | 0.00 | 0.00 | 0.00 | 69 | 1017.8 |
| 20260507150911 | 30 | 27 | 9.7 | 24.1 | 0.00 | 0.00 | 0.00 | 71 | 1017.8 |
| 20260507150408 | 30 | 153 | 6.4 | 14.5 | 0.00 | 0.00 | 0.00 | 70 | 1017.7 |
| 20260507145904 | 30 | 91 | 6.4 | 12.9 | 0.00 | 0.00 | 0.00 | 71 | 1017.8 |
| 20260507145400 | 30 | 43 | 9.7 | 20.9 | 0.00 | 0.00 | 0.00 | 71 | 1018.0 |
| 20260507144857 | 29 | 75 | 9.7 | 14.5 | 0.00 | 0.00 | 0.00 | 73 | 1017.7 |
| 20260507144355 | 29 | 80 | 8.0 | 22.5 | 0.00 | 0.00 | 0.00 | 73 | 1017.8 |
| 20260507143851 | 29 | 45 | 12.9 | 22.5 | 0.00 | 0.00 | 0.00 | 73 | 1017.8 |
| 20260507143349 | 30 | 78 | 9.7 | 20.9 | 0.00 | 0.00 | 0.00 | 70 | 1018.1 |
| 20260507142845 | 31 | 59 | 6.4 | 17.7 | 0.00 | 0.00 | 0.00 | 69 | 1018.0 |
| 20260507142341 | 31 | 18 | 9.7 | 17.7 | 0.00 | 0.00 | 0.00 | 67 | 1018.0 |
| 20260507141838 | 31 | 66 | 6.4 | 14.5 | 0.00 | 0.00 | 0.00 | 68 | 1018.0 |
| 20260507141335 | 30 | 54 | 4.8 | 14.5 | 0.00 | 0.00 | 0.00 | 70 | 1018.2 |
| 20260507140831 | 30 | 51 | 9.7 | 16.1 | 0.00 | 0.00 | 0.00 | 70 | 1017.9 |
| 20260507140328 | 31 | 57 | 6.4 | 17.7 | 0.00 | 0.00 | 0.00 | 68 | 1018.0 |
| 20260507135826 | 31 | 73 | 12.9 | 14.5 | 0.00 | 0.00 | 0.00 | 67 | 1018.2 |
| 20260507135322 | 30 | 100 | 4.8 | 11.3 | 0.00 | 0.00 | 0.00 | 70 | 1018.2 |
| 20260507134820 | 30 | 62 | 8.0 | 14.5 | 0.00 | 0.00 | 0.00 | 71 | 1018.2 |
| 20260507134316 | 30 | 44 | 12.9 | 16.1 | 0.00 | 0.00 | 0.00 | 69 | 1018.1 |
| 20260507133811 | 31 | 66 | 6.4 | 16.1 | 0.00 | 0.00 | 0.00 | 70 | 1018.2 |
| 20260507133308 | 30 | 12 | 4.8 | 14.5 | 0.00 | 0.00 | 0.00 | 64 | 1018.3 |
| 20260507132806 | 31 | 35 | 4.8 | 9.7 | 0.00 | 0.00 | 0.00 | 62 | 1018.3 |
| 20260507132306 | 31 | 42 | 3.2 | 12.9 | 0.00 | 0.00 | 0.00 | 63 | 1018.1 |
| 20260507131759 | 31 | 49 | 4.8 | 9.7 | 0.00 | 0.00 | 0.00 | 63 | 1017.9 |
| 20260507131256 | 30 | 67 | 1.6 | 4.8 | 0.00 | 0.00 | 0.00 | 66 | 1018.1 |
| 20260507130753 | 30 | 80 | 4.8 | 4.8 | 0.00 | 0.00 | 0.00 | 66 | 1017.8 |
| 20260507130251 | 30 | 71 | 3.2 | 6.4 | 0.00 | 0.00 | 0.00 | 66 | 1017.8 |
| 20260507125749 | 30 | 77 | 6.4 | 9.7 | 0.00 | 0.00 | 0.00 | 66 | 1017.8 |
| 20260507125246 | 30 | 77 | 4.8 | 6.4 | 0.00 | 0.00 | 0.00 | 67 | 1017.6 |
| 20260507124743 | 30 | 71 | 4.8 | 11.3 | 0.00 | 0.00 | 0.00 | 68 | 1017.5 |
| 20260507124240 | 29 | 134 | 4.8 | 6.4 | 0.00 | 0.00 | 0.00 | 70 | 1017.7 |
| 20260507123738 | 30 | 93 | 4.8 | 12.9 | 0.00 | 0.00 | 0.00 | 69 | 1017.8 |
| 20260507123236 | 29 | 65 | 3.2 | 4.8 | 0.00 | 0.00 | 0.00 | 70 | 1017.7 |
| 20260507122730 | 29 | 59 | 4.8 | 6.4 | 0.00 | 0.00 | 0.00 | 71 | 1017.7 |
| 20260507122227 | 29 | 41 | 6.4 | 9.7 | 0.00 | 0.00 | 0.00 | 70 | 1017.6 |
| 20260507121722 | 29 | 75 | 8.0 | 12.9 | 0.00 | 0.00 | 0.00 | 69 | 1017.8 |
| 20260507121218 | 29 | 60 | 1.6 | 4.8 | 0.00 | 0.00 | 0.00 | 70 | 1017.5 |
| 20260507120715 | 28 | 87 | 3.2 | 3.2 | 0.00 | 0.00 | 0.00 | 71 | 1017.6 |
| 20260507120212 | 28 | 121 | 3.2 | 6.4 | 0.00 | 0.00 | 0.00 | 71 | 1017.5 |
| 20260507115708 | 28 | 96 | 3.2 | 9.7 | 0.00 | 0.00 | 0.00 | 71 | 1017.4 |
| 20260507115204 | 28 | 71 | 6.4 | 9.7 | 0.00 | 0.00 | 0.00 | 70 | 1017.6 |
| 20260507114659 | 28 | 82 | 1.6 | 3.2 | 0.00 | 0.00 | 0.00 | 71 | 1017.5 |
| 20260507114157 | 28 | 179 | 1.6 | 3.2 | 0.00 | 0.00 | 0.00 | 71 | 1017.1 |
| 20260507113654 | 28 | 120 | 3.2 | 3.2 | 0.00 | 0.00 | 0.00 | 72 | 1017.2 |
| 20260507113151 | 28 | 85 | 0.0 | 4.8 | 0.00 | 0.00 | 0.00 | 74 | 1017.2 |
| 20260507112649 | 28 | 98 | 1.6 | 3.2 | 0.00 | 0.00 | 0.00 | 75 | 1017.2 |
| 20260507112145 | 28 | 186 | 3.2 | 6.4 | 0.00 | 0.00 | 0.00 | 74 | 1017.1 |
| 20260507111643 | 27 | 92 | 1.6 | 3.2 | 0.00 | 0.00 | 0.00 | 77 | 1017.0 |
| 20260507111139 | 27 | 191 | 1.6 | 4.8 | 0.00 | 0.00 | 0.00 | 77 | 1016.9 |
| 20260507110636 | 27 | 109 | 3.2 | 3.2 | 0.00 | 0.00 | 0.00 | 78 | 1017.1 |
| 20260507110132 | 27 | 123 | 0.0 | 3.2 | 0.00 | 0.00 | 0.00 | 79 | 1017.0 |
| 20260507105629 | 27 | 96 | 3.2 | 6.4 | 0.00 | 0.00 | 0.00 | 79 | 1016.9 |
| 20260507105125 | 27 | 167 | 1.6 | 6.4 | 0.00 | 0.00 | 0.00 | 80 | 1016.9 |
| 20260507104623 | 26 | 79 | 3.2 | 4.8 | 0.00 | 0.00 | 0.00 | 80 | 1017.1 |
| 20260507104119 | 26 | 116 | 0.0 | 3.2 | 0.00 | 0.00 | 0.00 | 81 | 1016.9 |
| 20260507103615 | 26 | 146 | 1.6 | 4.8 | 0.00 | 0.00 | 0.00 | 81 | 1017.1 |
| 20260507103112 | 26 | 117 | 1.6 | 1.6 | 0.00 | 0.00 | 0.00 | 81 | 1016.9 |
| 20260507102608 | 26 | 119 | 0.0 | 1.6 | 0.00 | 0.00 | 0.00 | 82 | 1016.9 |
| 20260507102105 | 26 | 136 | 0.0 | 1.6 | 0.00 | 0.00 | 0.00 | 82 | 1016.6 |
| 20260507101601 | 26 | 126 | 0.0 | 3.2 | 0.00 | 0.00 | 0.00 | 83 | 1016.8 |
| 20260507101057 | 25 | 117 | 0.0 | 1.6 | 0.00 | 0.00 | 0.00 | 84 | 1016.8 |
| 20260507100554 | 25 | 107 | 1.6 | 3.2 | 0.00 | 0.00 | 0.00 | 84 | 1016.8 |
| 20260507100052 | 25 | 113 | 1.6 | 1.6 | 0.00 | 0.00 | 0.00 | 84 | 1016.7 |
| 20260507095550 | 25 | 205 | 0.0 | 3.2 | 0.00 | 0.00 | 0.00 | 84 | 1016.4 |
| 20260507095046 | 25 | 190 | 3.2 | 3.2 | 0.00 | 0.00 | 0.00 | 84 | 1016.6 |
| 20260507094542 | 25 | 129 | 0.0 | 1.6 | 0.00 | 0.00 | 0.00 | 84 | 1016.4 |
| 20260507094039 | 25 | 121 | 0.0 | 1.6 | 0.00 | 0.00 | 0.00 | 83 | 1016.4 |
| 20260507093537 | 25 | 160 | 0.0 | 1.6 | 0.00 | 0.00 | 0.00 | 83 | 1016.4 |
| 20260507093036 | 25 | 140 | 1.6 | 3.2 | 0.00 | 0.00 | 0.00 | 83 | 1016.4 |
| 20260507092532 | 25 | 192 | 1.6 | 1.6 | 0.00 | 0.00 | 0.00 | 83 | 1016.3 |
| 20260507092028 | 25 | 114 | 0.0 | 3.2 | 0.00 | 0.00 | 0.00 | 83 | 1016.4 |
| 20260507091525 | 25 | 113 | 0.0 | 1.6 | 0.00 | 0.00 | 0.00 | 83 | 1016.3 |
| 20260507091021 | 25 | 109 | 1.6 | 3.2 | 0.00 | 0.00 | 0.00 | 83 | 1016.5 |
| 20260507090517 | 25 | 106 | 1.6 | 3.2 | 0.00 | 0.00 | 0.00 | 83 | 1016.8 |
| 20260507090014 | 25 | 137 | 1.6 | 3.2 | 0.00 | 0.00 | 0.00 | 84 | 1016.6 |
| 20260507085511 | 25 | 116 | 0.0 | 1.6 | 0.00 | 0.00 | 0.00 | 84 | 1016.5 |
| 20260507085008 | 25 | 109 | 0.0 | 1.6 | 0.00 | 0.00 | 0.00 | 84 | 1016.8 |
| 20260507084505 | 25 | 258 | 0.0 | 0.0 | 0.00 | 0.00 | 0.00 | 84 | 1016.7 |
| 20260507084002 | 25 | 262 | 0.0 | 0.0 | 0.00 | 0.00 | 0.00 | 83 | 1016.6 |
| 20260507083458 | 25 | 231 | 0.0 | 0.0 | 0.00 | 0.00 | 0.00 | 83 | 1016.7 |
| 20260507082954 | 25 | 267 | 0.0 | 0.0 | 0.00 | 0.00 | 0.00 | 83 | 1016.9 |
| 20260507082451 | 26 | 245 | 0.0 | 1.6 | 0.00 | 0.00 | 0.00 | 83 | 1016.6 |
| 20260507081947 | 26 | 265 | 0.0 | 1.6 | 0.00 | 0.00 | 0.00 | 83 | 1016.5 |
| 20260507081444 | 26 | 213 | 0.0 | 1.6 | 0.00 | 0.00 | 0.00 | 83 | 1016.6 |
| 20260507080941 | 26 | 217 | 0.0 | 1.6 | 0.00 | 0.00 | 0.00 | 83 | 1016.6 |
| 20260507080436 | 26 | 150 | 0.0 | 1.6 | 0.00 | 0.00 | 0.00 | 83 | 1016.6 |
| 20260507075932 | 26 | 123 | 0.0 | 1.6 | 0.00 | 0.00 | 0.00 | 83 | 1016.6 |
| 20260507075429 | 26 | 204 | 0.0 | 1.6 | 0.00 | 0.00 | 0.00 | 83 | 1016.6 |
| 20260507074925 | 26 | 209 | 1.6 | 1.6 | 0.00 | 0.00 | 0.00 | 83 | 1016.5 |
| 20260507074422 | 26 | 183 | 0.0 | 1.6 | 0.00 | 0.00 | 0.00 | 83 | 1016.5 |
| 20260507073920 | 26 | 218 | 1.6 | 1.6 | 0.00 | 0.00 | 0.00 | 83 | 1016.5 |
| 20260507073416 | 26 | 99 | 0.0 | 1.6 | 0.00 | 0.00 | 0.00 | 83 | 1016.5 |
| 20260507072913 | 26 | 147 | 0.0 | 1.6 | 0.00 | 0.00 | 0.00 | 83 | 1016.7 |
| 20260507072411 | 26 | 145 | 0.0 | 1.6 | 0.00 | 0.00 | 0.00 | 83 | 1016.6 |
| 20260507071908 | 26 | 224 | 0.0 | 0.0 | 0.00 | 0.00 | 0.00 | 82 | 1016.7 |
| 20260507071405 | 26 | 150 | 0.0 | 1.6 | 0.00 | 0.00 | 0.00 | 83 | 1016.8 |
| 20260507070901 | 26 | 142 | 0.0 | 3.2 | 0.00 | 0.00 | 0.00 | 82 | 1016.6 |
| 20260507070359 | 26 | 132 | 0.0 | 3.2 | 0.00 | 0.00 | 0.00 | 82 | 1016.8 |
| 20260507065855 | 26 | 152 | 1.6 | 3.2 | 0.00 | 0.00 | 0.00 | 82 | 1016.7 |
| 20260507065352 | 26 | 189 | 0.0 | 3.2 | 0.00 | 0.00 | 0.00 | 82 | 1016.8 |
| 20260507064849 | 26 | 194 | 0.0 | 1.6 | 0.00 | 0.00 | 0.00 | 82 | 1016.9 |
| 20260507064348 | 26 | 216 | 1.6 | 4.8 | 0.00 | 0.00 | 0.00 | 82 | 1016.8 |
| 20260507063845 | 26 | 204 | 0.0 | 3.2 | 0.00 | 0.00 | 0.00 | 81 | 1016.9 |
| 20260507063342 | 26 | 217 | 1.6 | 1.6 | 0.00 | 0.00 | 0.00 | 81 | 1017.0 |
| 20260507062838 | 26 | 165 | 1.6 | 1.6 | 0.00 | 0.00 | 0.00 | 81 | 1017.1 |
| 20260507062335 | 26 | 107 | 0.0 | 1.6 | 0.00 | 0.00 | 0.00 | 81 | 1017.2 |
| 20260507061833 | 26 | 125 | 0.0 | 1.6 | 0.00 | 0.00 | 0.00 | 81 | 1017.3 |
| 20260507061331 | 26 | 178 | 1.6 | 3.2 | 0.00 | 0.00 | 0.00 | 81 | 1017.2 |
| 20260507060829 | 26 | 133 | 1.6 | 3.2 | 0.00 | 0.00 | 0.00 | 81 | 1017.3 |
| 20260507060326 | 26 | 144 | 1.6 | 3.2 | 0.00 | 0.00 | 0.00 | 81 | 1017.3 |
| 20260507055823 | 26 | 201 | 1.6 | 3.2 | 0.00 | 0.00 | 0.00 | 81 | 1017.4 |
| 20260507055318 | 26 | 83 | 0.0 | 3.2 | 0.00 | 0.00 | 0.00 | 81 | 1017.4 |
| 20260507054815 | 26 | 201 | 3.2 | 3.2 | 0.00 | 0.00 | 0.00 | 81 | 1017.6 |
| 20260507054311 | 26 | 88 | 1.6 | 3.2 | 0.00 | 0.00 | 0.00 | 81 | 1017.4 |
| 20260507053808 | 26 | 210 | 0.0 | 4.8 | 0.00 | 0.00 | 0.00 | 81 | 1017.8 |
| 20260507053306 | 26 | 94 | 0.0 | 3.2 | 0.00 | 0.00 | 0.00 | 81 | 1017.7 |
| 20260507052805 | 26 | 127 | 3.2 | 4.8 | 0.00 | 0.00 | 0.00 | 81 | 1017.6 |
| 20260507052301 | 26 | 145 | 1.6 | 3.2 | 0.00 | 0.00 | 0.00 | 81 | 1017.8 |
| 20260507051759 | 26 | 183 | 1.6 | 1.6 | 0.00 | 0.00 | 0.00 | 81 | 1017.9 |
| 20260507051255 | 26 | 108 | 1.6 | 1.6 | 0.00 | 0.00 | 0.00 | 81 | 1018.0 |
| 20260507050752 | 26 | 135 | 1.6 | 4.8 | 0.00 | 0.00 | 0.00 | 80 | 1018.0 |
| 20260507050249 | 26 | 110 | 1.6 | 3.2 | 0.00 | 0.00 | 0.00 | 80 | 1017.7 |
| 20260507045746 | 27 | 122 | 3.2 | 6.4 | 0.00 | 0.00 | 0.00 | 80 | 1018.2 |
| 20260507045242 | 27 | 88 | 1.6 | 6.4 | 0.00 | 0.00 | 0.00 | 80 | 1018.2 |
| 20260507044740 | 27 | 179 | 3.2 | 4.8 | 0.00 | 0.00 | 0.00 | 80 | 1018.4 |
| 20260507044236 | 27 | 154 | 1.6 | 9.7 | 0.00 | 0.00 | 0.00 | 80 | 1018.3 |
| 20260507043732 | 27 | 97 | 3.2 | 6.4 | 0.00 | 0.00 | 0.00 | 80 | 1018.3 |
| 20260507043229 | 27 | 100 | 3.2 | 6.4 | 0.00 | 0.00 | 0.00 | 80 | 1018.4 |
| 20260507042725 | 27 | 96 | 3.2 | 4.8 | 0.00 | 0.00 | 0.00 | 80 | 1018.5 |
| 20260507042220 | 27 | 97 | 3.2 | 4.8 | 0.00 | 0.00 | 0.00 | 80 | 1018.4 |
| 20260507041718 | 27 | 82 | 1.6 | 4.8 | 0.00 | 0.00 | 0.00 | 80 | 1018.6 |
| 20260507041214 | 27 | 67 | 3.2 | 6.4 | 0.00 | 0.00 | 0.00 | 80 | 1018.7 |
| 20260507040711 | 27 | 94 | 4.8 | 6.4 | 0.00 | 0.00 | 0.00 | 80 | 1018.8 |
| 20260507040207 | 27 | 114 | 1.6 | 6.4 | 0.00 | 0.00 | 0.00 | 80 | 1018.9 |
| 20260507035703 | 27 | 93 | 3.2 | 4.8 | 0.00 | 0.00 | 0.00 | 79 | 1018.9 |
| 20260507035159 | 27 | 112 | 4.8 | 6.4 | 0.00 | 0.00 | 0.00 | 79 | 1019.0 |
| 20260507034656 | 27 | 118 | 1.6 | 4.8 | 0.00 | 0.00 | 0.00 | 79 | 1018.9 |
| 20260507034154 | 27 | 106 | 4.8 | 4.8 | 0.00 | 0.00 | 0.00 | 79 | 1018.9 |
| 20260507033652 | 27 | 119 | 3.2 | 11.3 | 0.00 | 0.00 | 0.00 | 79 | 1018.8 |
| 20260507033149 | 27 | 119 | 8.0 | 11.3 | 0.00 | 0.00 | 0.00 | 78 | 1019.0 |
| 20260507032647 | 27 | 136 | 1.6 | 4.8 | 0.00 | 0.00 | 0.00 | 78 | 1019.0 |
| 20260507032142 | 27 | 75 | 3.2 | 3.2 | 0.00 | 0.00 | 0.00 | 77 | 1019.0 |
| 20260507031639 | 27 | 91 | 3.2 | 4.8 | 0.00 | 0.00 | 0.00 | 77 | 1019.0 |
| 20260507031135 | 27 | 81 | 1.6 | 3.2 | 0.00 | 0.00 | 0.00 | 78 | 1019.0 |
| 20260507030632 | 27 | 112 | 3.2 | 4.8 | 0.00 | 0.00 | 0.00 | 78 | 1019.0 |
| 20260507030131 | 27 | 121 | 0.0 | 3.2 | 0.00 | 0.00 | 0.00 | 78 | 1019.0 |
| 20260507025627 | 27 | 191 | 0.0 | 3.2 | 0.00 | 0.00 | 0.00 | 78 | 1019.2 |
| 20260507025124 | 27 | 194 | 1.6 | 3.2 | 0.00 | 0.00 | 0.00 | 78 | 1018.9 |
| 20260507024622 | 27 | 144 | 0.0 | 3.2 | 0.00 | 0.00 | 0.00 | 78 | 1019.1 |
| 20260507024119 | 27 | 112 | 1.6 | 3.2 | 0.00 | 0.00 | 0.00 | 78 | 1019.1 |
| 20260507023614 | 27 | 182 | 0.0 | 3.2 | 0.00 | 0.00 | 0.00 | 77 | 1019.1 |
| 20260507023112 | 27 | 179 | 1.6 | 4.8 | 0.00 | 0.00 | 0.00 | 77 | 1019.1 |
| 20260507022609 | 27 | 85 | 3.2 | 4.8 | 0.00 | 0.00 | 0.00 | 77 | 1018.8 |
| 20260507022104 | 27 | 202 | 1.6 | 3.2 | 0.00 | 0.00 | 0.00 | 77 | 1019.0 |
| 20260507021601 | 27 | 108 | 3.2 | 6.4 | 0.00 | 0.00 | 0.00 | 77 | 1018.8 |
| 20260507021057 | 27 | 122 | 3.2 | 4.8 | 0.00 | 0.00 | 0.00 | 76 | 1018.8 |
| 20260507020555 | 27 | 102 | 4.8 | 9.7 | 0.00 | 0.00 | 0.00 | 76 | 1018.6 |
| 20260507020051 | 27 | 103 | 6.4 | 9.7 | 0.00 | 0.00 | 0.00 | 75 | 1018.6 |
| 20260507015550 | 27 | 119 | 1.6 | 4.8 | 0.00 | 0.00 | 0.00 | 75 | 1018.7 |
| 20260507015047 | 27 | 91 | 1.6 | 9.7 | 0.00 | 0.00 | 0.00 | 74 | 1018.6 |
| 20260507014543 | 27 | 78 | 3.2 | 9.7 | 0.00 | 0.00 | 0.00 | 74 | 1018.4 |
| 20260507014039 | 27 | 119 | 8.0 | 9.7 | 0.00 | 0.00 | 0.00 | 73 | 1018.5 |
| 20260507013536 | 27 | 129 | 3.2 | 4.8 | 0.00 | 0.00 | 0.00 | 73 | 1018.5 |
| 20260507013033 | 27 | 82 | 4.8 | 6.4 | 0.00 | 0.00 | 0.00 | 73 | 1018.3 |
| 20260507012530 | 27 | 110 | 1.6 | 4.8 | 0.00 | 0.00 | 0.00 | 73 | 1018.4 |
| 20260507012026 | 27 | 134 | 4.8 | 12.9 | 0.00 | 0.00 | 0.00 | 73 | 1018.3 |
| 20260507011524 | 27 | 119 | 3.2 | 6.4 | 0.00 | 0.00 | 0.00 | 72 | 1018.4 |
| 20260507011020 | 27 | 158 | 3.2 | 6.4 | 0.00 | 0.00 | 0.00 | 72 | 1018.3 |
| 20260507010514 | 28 | 125 | 3.2 | 9.7 | 0.00 | 0.00 | 0.00 | 72 | 1018.2 |
| 20260507010011 | 28 | 162 | 4.8 | 6.4 | 0.00 | 0.00 | 0.00 | 72 | 1018.2 |
| 20260507005509 | 28 | 98 | 4.8 | 9.7 | 0.00 | 0.00 | 0.00 | 71 | 1018.1 |
| 20260507005005 | 28 | 173 | 1.6 | 9.7 | 0.00 | 0.00 | 0.00 | 71 | 1018.0 |
| 20260507004502 | 28 | 97 | 6.4 | 12.9 | 0.00 | 0.00 | 0.00 | 72 | 1018.0 |
| 20260507004000 | 28 | 153 | 3.2 | 9.7 | 0.00 | 0.00 | 0.00 | 71 | 1018.1 |
| 20260507003454 | 28 | 167 | 6.4 | 11.3 | 0.00 | 0.00 | 0.00 | 71 | 1017.9 |
| 20260507002950 | 28 | 151 | 3.2 | 9.7 | 0.00 | 0.00 | 0.00 | 72 | 1018.0 |
| 20260507002447 | 28 | 192 | 8.0 | 11.3 | 0.00 | 0.00 | 0.00 | 71 | 1017.8 |
| 20260507001943 | 28 | 175 | 3.2 | 9.7 | 0.00 | 0.00 | 0.00 | 71 | 1018.0 |
| 20260507001440 | 28 | 183 | 3.2 | 9.7 | 0.00 | 0.00 | 0.00 | 71 | 1018.0 |
| 20260507000938 | 28 | 176 | 3.2 | 12.9 | 0.00 | 0.00 | 0.00 | 70 | 1018.0 |
| 20260507000435 | 28 | 183 | 1.6 | 6.4 | 0.00 | 0.00 | 0.00 | 69 | 1017.6 |
| 20260506235929 | 28 | 105 | 6.4 | 9.7 | 0.00 | 0.00 | 0.00 | 68 | 1017.5 |
| 20260506235426 | 28 | 132 | 6.4 | 9.7 | 0.00 | 0.00 | 0.00 | 68 | 1017.5 |
| 20260506234921 | 28 | 118 | 3.2 | 6.4 | 0.00 | 0.00 | 0.00 | 67 | 1017.4 |
| 20260506234420 | 28 | 140 | 3.2 | 12.9 | 0.00 | 0.00 | 0.00 | 66 | 1017.4 |
| 20260506233917 | 28 | 96 | 8.0 | 14.5 | 0.00 | 0.00 | 0.00 | 66 | 1017.1 |
| 20260506233413 | 28 | 192 | 3.2 | 9.7 | 0.00 | 0.00 | 0.00 | 66 | 1017.3 |
| 20260506232910 | 28 | 81 | 1.6 | 12.9 | 0.00 | 0.00 | 0.00 | 65 | 1017.2 |
| 20260506232406 | 29 | 126 | 4.8 | 12.9 | 0.00 | 0.00 | 0.00 | 66 | 1017.1 |
| 20260506231902 | 29 | 86 | 6.4 | 11.3 | 0.00 | 0.00 | 0.00 | 65 | 1017.0 |
| 20260506231400 | 29 | 115 | 8.0 | 17.7 | 0.00 | 0.00 | 0.00 | 65 | 1017.1 |
| 20260506230857 | 29 | 148 | 4.8 | 11.3 | 0.00 | 0.00 | 0.00 | 65 | 1017.0 |
| 20260506230354 | 29 | 91 | 6.4 | 9.7 | 0.00 | 0.00 | 0.00 | 64 | 1016.9 |
| 20260506225850 | 29 | 52 | 4.8 | 14.5 | 0.00 | 0.00 | 0.00 | 63 | 1016.6 |
| 20260506225348 | 29 | 119 | 4.8 | 14.5 | 0.00 | 0.00 | 0.00 | 62 | 1016.6 |
| 20260506224844 | 29 | 128 | 6.4 | 12.9 | 0.00 | 0.00 | 0.00 | 62 | 1016.5 |
| 20260506224342 | 30 | 91 | 9.7 | 12.9 | 0.00 | 0.00 | 0.00 | 63 | 1016.3 |
| 20260506223838 | 30 | 109 | 6.4 | 11.3 | 0.00 | 0.00 | 0.00 | 63 | 1016.4 |
| 20260506223333 | 30 | 91 | 4.8 | 17.7 | 0.00 | 0.00 | 0.00 | 63 | 1016.2 |
| 20260506222831 | 30 | 163 | 4.8 | 12.9 | 0.00 | 0.00 | 0.00 | 61 | 1016.1 |
| 20260506222326 | 30 | 145 | 8.0 | 12.9 | 0.00 | 0.00 | 0.00 | 60 | 1016.0 |